sensor_id;sensor_type;location;lat;lon;timestamp;temperature;humidity
46732;DHT22;32477;51.474;5.696;2024-03-02T00:00:09;9.50;99.90
46732;DHT22;32477;51.474;5.696;2024-03-02T00:02:47;9.50;99.90
46732;DHT22;32477;51.474;5.696;2024-03-02T00:05:17;9.60;99.90
46732;DHT22;32477;51.474;5.696;2024-03-02T00:08:05;9.60;99.90
46732;DHT22;32477;51.474;5.696;2024-03-02T00:10:39;9.60;99.90
46732;DHT22;32477;51.474;5.696;2024-03-02T00:13:06;9.60;99.90
46732;DHT22;32477;51.474;5.696;2024-03-02T00:15:47;9.70;99.90
46732;DHT22;32477;51.474;5.696;2024-03-02T00:18:18;9.80;99.90
46732;DHT22;32477;51.474;5.696;2024-03-02T00:20:45;9.80;99.90
46732;DHT22;32477;51.474;5.696;2024-03-02T00:23:15;9.90;99.90
46732;DHT22;32477;51.474;5.696;2024-03-02T00:30:58;9.90;99.90
46732;DHT22;32477;51.474;5.696;2024-03-02T00:33:26;9.80;99.90
46732;DHT22;32477;51.474;5.696;2024-03-02T00:35:52;9.90;99.90
46732;DHT22;32477;51.474;5.696;2024-03-02T00:38:18;9.90;99.90
46732;DHT22;32477;51.474;5.696;2024-03-02T00:40:44;9.80;99.90
46732;DHT22;32477;51.474;5.696;2024-03-02T00:45:54;9.40;99.90
46732;DHT22;32477;51.474;5.696;2024-03-02T00:48:20;9.10;99.90
46732;DHT22;32477;51.474;5.696;2024-03-02T00:51:03;8.80;99.90
46732;DHT22;32477;51.474;5.696;2024-03-02T00:53:32;8.60;99.90
46732;DHT22;32477;51.474;5.696;2024-03-02T00:55:59;8.50;99.90
46732;DHT22;32477;51.474;5.696;2024-03-02T00:58:25;8.50;99.90
46732;DHT22;32477;51.474;5.696;2024-03-02T01:00:50;8.50;99.90
46732;DHT22;32477;51.474;5.696;2024-03-02T01:03:16;8.40;99.90
46732;DHT22;32477;51.474;5.696;2024-03-02T01:05:42;8.30;99.90
46732;DHT22;32477;51.474;5.696;2024-03-02T01:08:11;8.20;99.90
46732;DHT22;32477;51.474;5.696;2024-03-02T01:10:37;8.20;99.90
46732;DHT22;32477;51.474;5.696;2024-03-02T01:13:02;8.10;99.90
46732;DHT22;32477;51.474;5.696;2024-03-02T01:15:28;8.00;99.90
46732;DHT22;32477;51.474;5.696;2024-03-02T01:17:54;7.90;99.90
46732;DHT22;32477;51.474;5.696;2024-03-02T01:20:19;7.90;99.90
46732;DHT22;32477;51.474;5.696;2024-03-02T01:22:45;7.90;99.90
46732;DHT22;32477;51.474;5.696;2024-03-02T01:25:11;7.90;99.90
46732;DHT22;32477;51.474;5.696;2024-03-02T01:27:36;7.90;99.90
46732;DHT22;32477;51.474;5.696;2024-03-02T01:30:02;7.90;99.90
46732;DHT22;32477;51.474;5.696;2024-03-02T01:32:27;7.90;99.90
46732;DHT22;32477;51.474;5.696;2024-03-02T01:34:53;8.00;99.90
46732;DHT22;32477;51.474;5.696;2024-03-02T01:37:19;8.00;99.90
46732;DHT22;32477;51.474;5.696;2024-03-02T01:39:44;8.00;99.90
46732;DHT22;32477;51.474;5.696;2024-03-02T01:42:10;8.00;99.90
46732;DHT22;32477;51.474;5.696;2024-03-02T01:44:36;7.90;99.90
46732;DHT22;32477;51.474;5.696;2024-03-02T01:47:02;7.90;99.90
46732;DHT22;32477;51.474;5.696;2024-03-02T01:49:27;7.80;99.90
46732;DHT22;32477;51.474;5.696;2024-03-02T01:51:53;7.80;99.90
46732;DHT22;32477;51.474;5.696;2024-03-02T01:54:19;7.80;99.90
46732;DHT22;32477;51.474;5.696;2024-03-02T01:56:44;7.80;99.90
46732;DHT22;32477;51.474;5.696;2024-03-02T01:59:10;7.90;99.90
46732;DHT22;32477;51.474;5.696;2024-03-02T02:01:36;7.80;99.90
46732;DHT22;32477;51.474;5.696;2024-03-02T02:04:02;7.90;99.90
46732;DHT22;32477;51.474;5.696;2024-03-02T02:06:27;7.90;99.90
46732;DHT22;32477;51.474;5.696;2024-03-02T02:08:53;7.80;99.90
46732;DHT22;32477;51.474;5.696;2024-03-02T02:11:19;7.80;99.90
46732;DHT22;32477;51.474;5.696;2024-03-02T02:13:44;7.80;99.90
46732;DHT22;32477;51.474;5.696;2024-03-02T02:16:10;7.80;99.90
46732;DHT22;32477;51.474;5.696;2024-03-02T02:18:36;7.80;99.90
46732;DHT22;32477;51.474;5.696;2024-03-02T02:21:02;7.80;99.90
46732;DHT22;32477;51.474;5.696;2024-03-02T02:23:29;7.70;99.90
46732;DHT22;32477;51.474;5.696;2024-03-02T02:25:54;7.60;99.90
46732;DHT22;32477;51.474;5.696;2024-03-02T02:28:20;7.60;99.90
46732;DHT22;32477;51.474;5.696;2024-03-02T02:30:46;7.50;99.90
46732;DHT22;32477;51.474;5.696;2024-03-02T02:33:11;7.60;99.90
46732;DHT22;32477;51.474;5.696;2024-03-02T02:35:37;7.60;99.90
46732;DHT22;32477;51.474;5.696;2024-03-02T02:38:03;7.60;99.90
46732;DHT22;32477;51.474;5.696;2024-03-02T02:40:29;7.60;99.90
46732;DHT22;32477;51.474;5.696;2024-03-02T02:42:56;7.60;99.90
46732;DHT22;32477;51.474;5.696;2024-03-02T02:45:22;7.60;99.90
46732;DHT22;32477;51.474;5.696;2024-03-02T02:47:48;7.60;99.90
46732;DHT22;32477;51.474;5.696;2024-03-02T02:50:14;7.60;99.90
46732;DHT22;32477;51.474;5.696;2024-03-02T02:52:40;7.60;99.90
46732;DHT22;32477;51.474;5.696;2024-03-02T02:55:08;7.60;99.90
46732;DHT22;32477;51.474;5.696;2024-03-02T02:57:34;7.60;99.90
46732;DHT22;32477;51.474;5.696;2024-03-02T03:00:05;7.60;99.90
46732;DHT22;32477;51.474;5.696;2024-03-02T03:02:38;7.70;99.90
46732;DHT22;32477;51.474;5.696;2024-03-02T03:05:07;7.70;99.90
46732;DHT22;32477;51.474;5.696;2024-03-02T03:07:34;7.70;99.90
46732;DHT22;32477;51.474;5.696;2024-03-02T03:10:00;7.70;99.90
46732;DHT22;32477;51.474;5.696;2024-03-02T03:12:26;7.70;99.90
46732;DHT22;32477;51.474;5.696;2024-03-02T03:14:52;7.70;99.90
46732;DHT22;32477;51.474;5.696;2024-03-02T03:17:17;7.70;99.90
46732;DHT22;32477;51.474;5.696;2024-03-02T03:19:43;7.70;99.90
46732;DHT22;32477;51.474;5.696;2024-03-02T03:22:09;7.70;99.90
46732;DHT22;32477;51.474;5.696;2024-03-02T03:24:35;7.70;99.90
46732;DHT22;32477;51.474;5.696;2024-03-02T03:27:00;7.70;99.90
46732;DHT22;32477;51.474;5.696;2024-03-02T03:29:26;7.70;99.90
46732;DHT22;32477;51.474;5.696;2024-03-02T03:31:51;7.70;99.90
46732;DHT22;32477;51.474;5.696;2024-03-02T03:34:17;7.70;99.90
46732;DHT22;32477;51.474;5.696;2024-03-02T03:36:43;7.70;99.90
46732;DHT22;32477;51.474;5.696;2024-03-02T03:39:08;7.70;99.90
46732;DHT22;32477;51.474;5.696;2024-03-02T03:41:34;7.70;99.90
46732;DHT22;32477;51.474;5.696;2024-03-02T03:44:00;7.70;99.90
46732;DHT22;32477;51.474;5.696;2024-03-02T03:46:25;7.60;99.90
46732;DHT22;32477;51.474;5.696;2024-03-02T03:48:51;7.70;99.90
46732;DHT22;32477;51.474;5.696;2024-03-02T03:51:16;7.70;99.90
46732;DHT22;32477;51.474;5.696;2024-03-02T03:53:42;7.70;99.90
46732;DHT22;32477;51.474;5.696;2024-03-02T03:56:07;7.70;99.90
46732;DHT22;32477;51.474;5.696;2024-03-02T03:58:33;7.60;99.90
46732;DHT22;32477;51.474;5.696;2024-03-02T04:00:59;7.60;99.90
46732;DHT22;32477;51.474;5.696;2024-03-02T04:03:24;7.60;99.90
46732;DHT22;32477;51.474;5.696;2024-03-02T04:05:50;7.60;99.90
46732;DHT22;32477;51.474;5.696;2024-03-02T04:08:16;7.60;99.90
46732;DHT22;32477;51.474;5.696;2024-03-02T04:10:42;7.60;99.90
46732;DHT22;32477;51.474;5.696;2024-03-02T04:13:07;7.50;99.90
46732;DHT22;32477;51.474;5.696;2024-03-02T04:15:33;7.50;99.90
46732;DHT22;32477;51.474;5.696;2024-03-02T04:17:58;7.50;99.90
46732;DHT22;32477;51.474;5.696;2024-03-02T04:20:24;7.40;99.90
46732;DHT22;32477;51.474;5.696;2024-03-02T04:22:50;7.40;99.90
46732;DHT22;32477;51.474;5.696;2024-03-02T04:25:16;7.50;99.90
46732;DHT22;32477;51.474;5.696;2024-03-02T04:27:42;7.40;99.90
46732;DHT22;32477;51.474;5.696;2024-03-02T04:30:07;7.30;99.90
46732;DHT22;32477;51.474;5.696;2024-03-02T04:32:33;7.30;99.90
46732;DHT22;32477;51.474;5.696;2024-03-02T04:34:59;7.30;99.90
46732;DHT22;32477;51.474;5.696;2024-03-02T04:37:24;7.20;99.90
46732;DHT22;32477;51.474;5.696;2024-03-02T04:39:50;7.10;99.90
46732;DHT22;32477;51.474;5.696;2024-03-02T04:42:16;7.00;99.90
46732;DHT22;32477;51.474;5.696;2024-03-02T04:44:41;7.00;99.90
46732;DHT22;32477;51.474;5.696;2024-03-02T04:47:07;7.00;99.90
46732;DHT22;32477;51.474;5.696;2024-03-02T04:49:33;6.90;99.90
46732;DHT22;32477;51.474;5.696;2024-03-02T04:51:58;7.00;99.90
46732;DHT22;32477;51.474;5.696;2024-03-02T04:54:24;7.00;99.90
46732;DHT22;32477;51.474;5.696;2024-03-02T04:56:50;7.10;99.90
46732;DHT22;32477;51.474;5.696;2024-03-02T04:59:19;7.10;99.90
46732;DHT22;32477;51.474;5.696;2024-03-02T05:01:45;7.00;99.90
46732;DHT22;32477;51.474;5.696;2024-03-02T05:04:11;7.10;99.90
46732;DHT22;32477;51.474;5.696;2024-03-02T05:06:40;7.10;99.90
46732;DHT22;32477;51.474;5.696;2024-03-02T05:09:09;7.00;99.90
46732;DHT22;32477;51.474;5.696;2024-03-02T05:11:35;7.00;99.90
46732;DHT22;32477;51.474;5.696;2024-03-02T05:14:04;7.10;99.90
46732;DHT22;32477;51.474;5.696;2024-03-02T05:16:33;7.20;99.90
46732;DHT22;32477;51.474;5.696;2024-03-02T05:18:59;7.20;99.90
46732;DHT22;32477;51.474;5.696;2024-03-02T05:21:26;7.30;99.90
46732;DHT22;32477;51.474;5.696;2024-03-02T05:23:51;7.20;99.90
46732;DHT22;32477;51.474;5.696;2024-03-02T05:26:17;7.10;99.90
46732;DHT22;32477;51.474;5.696;2024-03-02T05:28:43;7.00;99.90
46732;DHT22;32477;51.474;5.696;2024-03-02T05:31:11;6.90;99.90
46732;DHT22;32477;51.474;5.696;2024-03-02T05:33:40;6.70;99.90
46732;DHT22;32477;51.474;5.696;2024-03-02T05:36:06;6.70;99.90
46732;DHT22;32477;51.474;5.696;2024-03-02T05:38:32;6.60;99.90
46732;DHT22;32477;51.474;5.696;2024-03-02T05:40:58;6.60;99.90
46732;DHT22;32477;51.474;5.696;2024-03-02T05:43:23;6.60;99.90
46732;DHT22;32477;51.474;5.696;2024-03-02T05:45:49;6.60;99.90
46732;DHT22;32477;51.474;5.696;2024-03-02T05:48:14;6.70;99.90
46732;DHT22;32477;51.474;5.696;2024-03-02T05:50:40;6.70;99.90
46732;DHT22;32477;51.474;5.696;2024-03-02T05:53:06;6.70;99.90
46732;DHT22;32477;51.474;5.696;2024-03-02T05:55:32;6.70;99.90
46732;DHT22;32477;51.474;5.696;2024-03-02T05:57:57;6.80;99.90
46732;DHT22;32477;51.474;5.696;2024-03-02T06:00:25;6.80;99.90
46732;DHT22;32477;51.474;5.696;2024-03-02T06:02:51;6.80;99.90
46732;DHT22;32477;51.474;5.696;2024-03-02T06:05:17;6.80;99.90
46732;DHT22;32477;51.474;5.696;2024-03-02T06:07:44;6.80;99.90
46732;DHT22;32477;51.474;5.696;2024-03-02T06:10:09;6.80;99.90
46732;DHT22;32477;51.474;5.696;2024-03-02T06:12:36;6.80;99.90
46732;DHT22;32477;51.474;5.696;2024-03-02T06:15:02;7.00;99.90
46732;DHT22;32477;51.474;5.696;2024-03-02T06:17:29;7.00;99.90
46732;DHT22;32477;51.474;5.696;2024-03-02T06:19:55;7.00;99.90
46732;DHT22;32477;51.474;5.696;2024-03-02T06:22:20;6.90;99.90
46732;DHT22;32477;51.474;5.696;2024-03-02T06:24:48;7.00;99.90
46732;DHT22;32477;51.474;5.696;2024-03-02T06:27:14;7.00;99.90
46732;DHT22;32477;51.474;5.696;2024-03-02T06:29:40;6.90;99.90
46732;DHT22;32477;51.474;5.696;2024-03-02T06:32:05;6.80;99.90
46732;DHT22;32477;51.474;5.696;2024-03-02T06:34:31;6.60;99.90
46732;DHT22;32477;51.474;5.696;2024-03-02T06:36:56;6.50;99.90
46732;DHT22;32477;51.474;5.696;2024-03-02T06:39:22;6.50;99.90
46732;DHT22;32477;51.474;5.696;2024-03-02T06:41:48;6.50;99.90
46732;DHT22;32477;51.474;5.696;2024-03-02T06:44:13;6.50;99.90
46732;DHT22;32477;51.474;5.696;2024-03-02T06:46:39;6.60;99.90
46732;DHT22;32477;51.474;5.696;2024-03-02T06:49:04;6.60;99.90
46732;DHT22;32477;51.474;5.696;2024-03-02T06:51:30;6.50;99.90
46732;DHT22;32477;51.474;5.696;2024-03-02T06:53:56;6.40;99.90
46732;DHT22;32477;51.474;5.696;2024-03-02T06:56:22;6.40;99.90
46732;DHT22;32477;51.474;5.696;2024-03-02T06:58:47;6.40;99.90
46732;DHT22;32477;51.474;5.696;2024-03-02T07:01:13;6.40;99.90
46732;DHT22;32477;51.474;5.696;2024-03-02T07:03:39;6.50;99.90
46732;DHT22;32477;51.474;5.696;2024-03-02T07:06:05;6.50;99.90
46732;DHT22;32477;51.474;5.696;2024-03-02T07:08:31;6.50;99.90
46732;DHT22;32477;51.474;5.696;2024-03-02T07:10:56;6.60;99.90
46732;DHT22;32477;51.474;5.696;2024-03-02T07:13:22;6.60;99.90
46732;DHT22;32477;51.474;5.696;2024-03-02T07:15:48;6.70;99.90
46732;DHT22;32477;51.474;5.696;2024-03-02T07:18:32;6.80;99.90
46732;DHT22;32477;51.474;5.696;2024-03-02T07:20:59;7.00;99.90
46732;DHT22;32477;51.474;5.696;2024-03-02T07:23:26;7.30;99.90
46732;DHT22;32477;51.474;5.696;2024-03-02T07:25:55;7.90;99.90
46732;DHT22;32477;51.474;5.696;2024-03-02T07:28:22;8.60;99.90
46732;DHT22;32477;51.474;5.696;2024-03-02T07:31:00;9.10;99.90
46732;DHT22;32477;51.474;5.696;2024-03-02T07:33:26;9.50;99.90
46732;DHT22;32477;51.474;5.696;2024-03-02T07:35:53;9.80;99.90
46732;DHT22;32477;51.474;5.696;2024-03-02T07:38:20;9.80;99.90
46732;DHT22;32477;51.474;5.696;2024-03-02T07:40:45;9.90;99.90
46732;DHT22;32477;51.474;5.696;2024-03-02T07:43:11;10.10;99.90
46732;DHT22;32477;51.474;5.696;2024-03-02T07:45:37;10.50;99.90
46732;DHT22;32477;51.474;5.696;2024-03-02T07:48:03;10.60;99.90
46732;DHT22;32477;51.474;5.696;2024-03-02T07:50:31;10.60;99.90
46732;DHT22;32477;51.474;5.696;2024-03-02T07:52:56;10.60;99.90
46732;DHT22;32477;51.474;5.696;2024-03-02T07:55:22;10.70;99.90
46732;DHT22;32477;51.474;5.696;2024-03-02T07:57:50;10.50;99.90
46732;DHT22;32477;51.474;5.696;2024-03-02T08:00:16;10.30;99.90
46732;DHT22;32477;51.474;5.696;2024-03-02T08:02:41;9.90;99.90
46732;DHT22;32477;51.474;5.696;2024-03-02T08:05:10;9.90;99.90
46732;DHT22;32477;51.474;5.696;2024-03-02T08:07:36;9.90;99.90
46732;DHT22;32477;51.474;5.696;2024-03-02T08:10:01;9.70;99.90
46732;DHT22;32477;51.474;5.696;2024-03-02T08:12:27;9.60;99.90
46732;DHT22;32477;51.474;5.696;2024-03-02T08:14:53;9.70;99.90
46732;DHT22;32477;51.474;5.696;2024-03-02T08:17:18;9.70;99.90
46732;DHT22;32477;51.474;5.696;2024-03-02T08:19:44;9.70;99.90
46732;DHT22;32477;51.474;5.696;2024-03-02T08:22:10;9.70;99.90
46732;DHT22;32477;51.474;5.696;2024-03-02T08:24:36;10.00;99.90
46732;DHT22;32477;51.474;5.696;2024-03-02T08:27:01;10.30;99.90
46732;DHT22;32477;51.474;5.696;2024-03-02T08:29:27;10.40;99.90
46732;DHT22;32477;51.474;5.696;2024-03-02T08:31:54;10.60;99.90
46732;DHT22;32477;51.474;5.696;2024-03-02T08:34:19;10.60;99.90
46732;DHT22;32477;51.474;5.696;2024-03-02T08:36:46;10.60;99.90
46732;DHT22;32477;51.474;5.696;2024-03-02T08:39:12;10.60;99.90
46732;DHT22;32477;51.474;5.696;2024-03-02T08:41:47;10.40;99.90
46732;DHT22;32477;51.474;5.696;2024-03-02T08:44:13;10.70;99.90
46732;DHT22;32477;51.474;5.696;2024-03-02T08:46:40;11.00;99.90
46732;DHT22;32477;51.474;5.696;2024-03-02T08:49:06;11.10;99.90
46732;DHT22;32477;51.474;5.696;2024-03-02T08:51:32;11.50;99.60
46732;DHT22;32477;51.474;5.696;2024-03-02T08:53:58;12.00;98.30
46732;DHT22;32477;51.474;5.696;2024-03-02T08:56:24;11.70;97.90
46732;DHT22;32477;51.474;5.696;2024-03-02T08:58:51;11.50;98.30
46732;DHT22;32477;51.474;5.696;2024-03-02T09:01:18;11.80;98.00
46732;DHT22;32477;51.474;5.696;2024-03-02T09:03:43;11.90;97.70
46732;DHT22;32477;51.474;5.696;2024-03-02T09:06:13;12.00;96.90
46732;DHT22;32477;51.474;5.696;2024-03-02T09:08:39;12.30;96.80
46732;DHT22;32477;51.474;5.696;2024-03-02T09:11:07;12.50;96.00
46732;DHT22;32477;51.474;5.696;2024-03-02T09:13:32;12.60;95.70
46732;DHT22;32477;51.474;5.696;2024-03-02T09:15:58;12.90;94.70
46732;DHT22;32477;51.474;5.696;2024-03-02T09:18:24;13.00;93.80
46732;DHT22;32477;51.474;5.696;2024-03-02T09:20:49;13.00;94.10
46732;DHT22;32477;51.474;5.696;2024-03-02T09:23:15;13.20;93.70
46732;DHT22;32477;51.474;5.696;2024-03-02T09:25:41;13.40;93.20
46732;DHT22;32477;51.474;5.696;2024-03-02T09:28:06;13.60;92.50
46732;DHT22;32477;51.474;5.696;2024-03-02T09:30:33;13.60;92.40
46732;DHT22;32477;51.474;5.696;2024-03-02T09:32:58;13.70;91.90
46732;DHT22;32477;51.474;5.696;2024-03-02T09:35:24;13.40;92.20
46732;DHT22;32477;51.474;5.696;2024-03-02T09:37:50;12.90;92.80
46732;DHT22;32477;51.474;5.696;2024-03-02T09:40:16;12.90;92.30
46732;DHT22;32477;51.474;5.696;2024-03-02T09:42:42;13.00;92.70
46732;DHT22;32477;51.474;5.696;2024-03-02T09:45:09;13.10;92.50
46732;DHT22;32477;51.474;5.696;2024-03-02T09:47:35;13.30;92.10
46732;DHT22;32477;51.474;5.696;2024-03-02T09:50:01;13.70;91.00
46732;DHT22;32477;51.474;5.696;2024-03-02T09:52:26;14.10;90.00
46732;DHT22;32477;51.474;5.696;2024-03-02T09:54:52;14.10;89.80
46732;DHT22;32477;51.474;5.696;2024-03-02T09:57:18;14.10;89.30
46732;DHT22;32477;51.474;5.696;2024-03-02T09:59:44;14.30;88.50
46732;DHT22;32477;51.474;5.696;2024-03-02T10:02:10;14.30;87.60
46732;DHT22;32477;51.474;5.696;2024-03-02T10:04:36;14.10;88.20
46732;DHT22;32477;51.474;5.696;2024-03-02T10:07:12;14.40;87.30
46732;DHT22;32477;51.474;5.696;2024-03-02T10:09:39;14.70;85.40
46732;DHT22;32477;51.474;5.696;2024-03-02T10:12:06;14.90;83.70
46732;DHT22;32477;51.474;5.696;2024-03-02T10:14:32;14.80;83.80
46732;DHT22;32477;51.474;5.696;2024-03-02T10:17:03;14.70;83.30
46732;DHT22;32477;51.474;5.696;2024-03-02T10:19:29;14.60;84.70
46732;DHT22;32477;51.474;5.696;2024-03-02T10:21:59;14.70;83.80
46732;DHT22;32477;51.474;5.696;2024-03-02T10:24:25;14.90;84.10
46732;DHT22;32477;51.474;5.696;2024-03-02T10:26:51;14.70;82.80
46732;DHT22;32477;51.474;5.696;2024-03-02T10:29:17;14.60;82.80
46732;DHT22;32477;51.474;5.696;2024-03-02T10:31:45;14.40;83.40
46732;DHT22;32477;51.474;5.696;2024-03-02T10:34:14;14.60;82.30
46732;DHT22;32477;51.474;5.696;2024-03-02T10:36:42;14.50;83.00
46732;DHT22;32477;51.474;5.696;2024-03-02T10:39:09;14.70;81.60
46732;DHT22;32477;51.474;5.696;2024-03-02T10:41:38;14.70;81.40
46732;DHT22;32477;51.474;5.696;2024-03-02T10:44:05;15.00;81.50
46732;DHT22;32477;51.474;5.696;2024-03-02T10:46:33;15.30;79.40
46732;DHT22;32477;51.474;5.696;2024-03-02T10:49:03;15.30;78.40
46732;DHT22;32477;51.474;5.696;2024-03-02T10:51:30;15.40;77.90
46732;DHT22;32477;51.474;5.696;2024-03-02T10:54:02;15.50;76.60
46732;DHT22;32477;51.474;5.696;2024-03-02T10:56:33;15.80;75.50
46732;DHT22;32477;51.474;5.696;2024-03-02T10:59:35;16.00;75.60
46732;DHT22;32477;51.474;5.696;2024-03-02T11:02:02;16.00;73.50
46732;DHT22;32477;51.474;5.696;2024-03-02T11:04:30;16.10;73.00
46732;DHT22;32477;51.474;5.696;2024-03-02T11:07:03;16.40;72.80
46732;DHT22;32477;51.474;5.696;2024-03-02T11:09:30;15.80;71.70
46732;DHT22;32477;51.474;5.696;2024-03-02T11:15:17;16.00;73.60
46732;DHT22;32477;51.474;5.696;2024-03-02T11:17:43;16.00;71.30
46732;DHT22;32477;51.474;5.696;2024-03-02T11:20:09;15.90;72.00
46732;DHT22;32477;51.474;5.696;2024-03-02T11:22:36;15.80;73.10
46732;DHT22;32477;51.474;5.696;2024-03-02T11:25:02;16.30;71.60
46732;DHT22;32477;51.474;5.696;2024-03-02T11:35:25;16.20;71.30
46732;DHT22;32477;51.474;5.696;2024-03-02T11:37:52;16.40;71.80
46732;DHT22;32477;51.474;5.696;2024-03-02T11:40:24;16.20;70.60
46732;DHT22;32477;51.474;5.696;2024-03-02T11:42:50;16.10;71.20
46732;DHT22;32477;51.474;5.696;2024-03-02T11:45:17;16.70;71.20
46732;DHT22;32477;51.474;5.696;2024-03-02T11:48:10;16.40;70.30
46732;DHT22;32477;51.474;5.696;2024-03-02T11:50:46;16.70;70.10
46732;DHT22;32477;51.474;5.696;2024-03-02T11:53:12;16.70;69.90
46732;DHT22;32477;51.474;5.696;2024-03-02T11:55:39;17.00;69.10
46732;DHT22;32477;51.474;5.696;2024-03-02T11:58:15;17.10;69.80
46732;DHT22;32477;51.474;5.696;2024-03-02T12:00:46;17.20;67.80
46732;DHT22;32477;51.474;5.696;2024-03-02T12:03:13;17.10;68.20
46732;DHT22;32477;51.474;5.696;2024-03-02T12:05:40;16.60;68.30
46732;DHT22;32477;51.474;5.696;2024-03-02T12:08:07;16.20;69.30
46732;DHT22;32477;51.474;5.696;2024-03-02T12:10:35;16.30;69.00
46732;DHT22;32477;51.474;5.696;2024-03-02T12:13:03;15.90;69.30
46732;DHT22;32477;51.474;5.696;2024-03-02T12:15:30;16.20;68.30
46732;DHT22;32477;51.474;5.696;2024-03-02T12:17:58;16.20;68.60
46732;DHT22;32477;51.474;5.696;2024-03-02T12:20:25;16.00;69.30
46732;DHT22;32477;51.474;5.696;2024-03-02T12:22:55;16.30;68.40
46732;DHT22;32477;51.474;5.696;2024-03-02T12:25:22;16.00;69.40
46732;DHT22;32477;51.474;5.696;2024-03-02T12:27:54;15.50;70.20
46732;DHT22;32477;51.474;5.696;2024-03-02T12:30:20;15.60;69.90
46732;DHT22;32477;51.474;5.696;2024-03-02T12:32:47;16.10;69.70
46732;DHT22;32477;51.474;5.696;2024-03-02T12:35:13;15.60;70.30
46732;DHT22;32477;51.474;5.696;2024-03-02T12:37:46;15.60;70.50
46732;DHT22;32477;51.474;5.696;2024-03-02T12:40:13;15.90;69.20
46732;DHT22;32477;51.474;5.696;2024-03-02T12:42:40;16.00;70.20
46732;DHT22;32477;51.474;5.696;2024-03-02T12:45:07;16.30;69.70
46732;DHT22;32477;51.474;5.696;2024-03-02T12:47:37;16.70;68.80
46732;DHT22;32477;51.474;5.696;2024-03-02T12:50:04;16.70;68.40
46732;DHT22;32477;51.474;5.696;2024-03-02T12:52:30;16.70;67.60
46732;DHT22;32477;51.474;5.696;2024-03-02T12:54:59;16.80;67.60
46732;DHT22;32477;51.474;5.696;2024-03-02T12:57:26;16.90;67.60
46732;DHT22;32477;51.474;5.696;2024-03-02T12:59:58;16.60;67.20
46732;DHT22;32477;51.474;5.696;2024-03-02T13:02:23;16.10;69.00
46732;DHT22;32477;51.474;5.696;2024-03-02T13:04:53;15.60;70.70
46732;DHT22;32477;51.474;5.696;2024-03-02T13:07:20;15.60;71.10
46732;DHT22;32477;51.474;5.696;2024-03-02T13:09:48;15.50;73.00
46732;DHT22;32477;51.474;5.696;2024-03-02T13:12:15;15.70;72.60
46732;DHT22;32477;51.474;5.696;2024-03-02T13:14:41;15.70;71.20
46732;DHT22;32477;51.474;5.696;2024-03-02T13:17:11;16.60;69.50
46732;DHT22;32477;51.474;5.696;2024-03-02T13:22:21;17.30;66.90
46732;DHT22;32477;51.474;5.696;2024-03-02T13:24:47;17.10;67.90
46732;DHT22;32477;51.474;5.696;2024-03-02T13:27:13;17.40;67.10
46732;DHT22;32477;51.474;5.696;2024-03-02T13:29:39;17.50;67.70
46732;DHT22;32477;51.474;5.696;2024-03-02T13:32:05;17.30;66.00
46732;DHT22;32477;51.474;5.696;2024-03-02T13:34:30;17.50;66.30
46732;DHT22;32477;51.474;5.696;2024-03-02T13:36:56;17.70;65.10
46732;DHT22;32477;51.474;5.696;2024-03-02T13:39:22;17.90;64.30
46732;DHT22;32477;51.474;5.696;2024-03-02T13:41:48;17.90;64.20
46732;DHT22;32477;51.474;5.696;2024-03-02T13:44:21;18.00;64.70
46732;DHT22;32477;51.474;5.696;2024-03-02T13:46:47;18.20;63.20
46732;DHT22;32477;51.474;5.696;2024-03-02T13:49:13;17.50;64.80
46732;DHT22;32477;51.474;5.696;2024-03-02T13:51:39;16.50;67.20
46732;DHT22;32477;51.474;5.696;2024-03-02T13:54:05;16.20;68.00
46732;DHT22;32477;51.474;5.696;2024-03-02T13:56:31;15.60;69.70
46732;DHT22;32477;51.474;5.696;2024-03-02T13:58:58;16.00;69.30
46732;DHT22;32477;51.474;5.696;2024-03-02T14:01:24;16.10;69.10
46732;DHT22;32477;51.474;5.696;2024-03-02T14:03:50;16.50;68.20
46732;DHT22;32477;51.474;5.696;2024-03-02T14:06:16;16.80;67.10
46732;DHT22;32477;51.474;5.696;2024-03-02T14:08:41;17.10;66.20
46732;DHT22;32477;51.474;5.696;2024-03-02T14:11:10;17.50;65.10
46732;DHT22;32477;51.474;5.696;2024-03-02T14:13:41;17.80;65.20
46732;DHT22;32477;51.474;5.696;2024-03-02T14:16:06;18.00;64.10
46732;DHT22;32477;51.474;5.696;2024-03-02T14:18:32;17.40;64.80
46732;DHT22;32477;51.474;5.696;2024-03-02T14:20:57;17.30;65.40
46732;DHT22;32477;51.474;5.696;2024-03-02T14:23:23;17.30;65.10
46732;DHT22;32477;51.474;5.696;2024-03-02T14:25:51;17.30;64.70
46732;DHT22;32477;51.474;5.696;2024-03-02T14:28:16;16.90;66.30
46732;DHT22;32477;51.474;5.696;2024-03-02T14:30:42;17.00;66.40
46732;DHT22;32477;51.474;5.696;2024-03-02T14:33:08;16.70;66.10
46732;DHT22;32477;51.474;5.696;2024-03-02T14:35:33;16.60;66.80
46732;DHT22;32477;51.474;5.696;2024-03-02T14:37:59;16.30;68.60
46732;DHT22;32477;51.474;5.696;2024-03-02T14:40:25;16.60;67.70
46732;DHT22;32477;51.474;5.696;2024-03-02T14:42:53;16.30;69.60
46732;DHT22;32477;51.474;5.696;2024-03-02T14:45:18;16.10;70.20
46732;DHT22;32477;51.474;5.696;2024-03-02T14:47:44;15.70;70.80
46732;DHT22;32477;51.474;5.696;2024-03-02T14:50:10;15.50;73.10
46732;DHT22;32477;51.474;5.696;2024-03-02T14:52:36;15.00;73.30
46732;DHT22;32477;51.474;5.696;2024-03-02T14:55:02;14.80;75.20
46732;DHT22;32477;51.474;5.696;2024-03-02T14:57:32;14.70;77.20
46732;DHT22;32477;51.474;5.696;2024-03-02T14:59:58;14.70;77.30
46732;DHT22;32477;51.474;5.696;2024-03-02T15:02:24;14.90;76.90
46732;DHT22;32477;51.474;5.696;2024-03-02T15:04:49;15.10;75.90
46732;DHT22;32477;51.474;5.696;2024-03-02T15:07:15;15.10;76.00
46732;DHT22;32477;51.474;5.696;2024-03-02T15:09:41;15.30;75.70
46732;DHT22;32477;51.474;5.696;2024-03-02T15:12:07;15.50;75.60
46732;DHT22;32477;51.474;5.696;2024-03-02T15:14:38;15.60;76.20
46732;DHT22;32477;51.474;5.696;2024-03-02T15:17:06;15.40;76.70
46732;DHT22;32477;51.474;5.696;2024-03-02T15:19:32;15.60;76.60
46732;DHT22;32477;51.474;5.696;2024-03-02T15:21:57;15.60;76.40
46732;DHT22;32477;51.474;5.696;2024-03-02T15:24:23;15.20;77.80
46732;DHT22;32477;51.474;5.696;2024-03-02T15:26:50;15.00;79.20
46732;DHT22;32477;51.474;5.696;2024-03-02T15:29:15;15.10;79.10
46732;DHT22;32477;51.474;5.696;2024-03-02T15:31:41;15.30;78.00
46732;DHT22;32477;51.474;5.696;2024-03-02T15:34:06;15.30;78.20
46732;DHT22;32477;51.474;5.696;2024-03-02T15:36:33;15.00;78.00
46732;DHT22;32477;51.474;5.696;2024-03-02T15:38:59;14.70;78.80
46732;DHT22;32477;51.474;5.696;2024-03-02T15:41:26;14.70;79.00
46732;DHT22;32477;51.474;5.696;2024-03-02T15:43:51;14.60;79.90
46732;DHT22;32477;51.474;5.696;2024-03-02T15:46:17;14.50;79.80
46732;DHT22;32477;51.474;5.696;2024-03-02T15:48:42;14.40;80.00
46732;DHT22;32477;51.474;5.696;2024-03-02T15:51:08;14.40;80.80
46732;DHT22;32477;51.474;5.696;2024-03-02T15:53:35;14.50;81.40
46732;DHT22;32477;51.474;5.696;2024-03-02T15:56:01;14.40;81.20